Time;durP1;ratioP1;P1;durP2;ratioP2;P2;SDS_P1;SDS_P2;PMS_P1;PMS_P2;Temp;Humidity;BMP_temperature;BMP_pressure;BME280_temperature;BME280_humidity;BME280_pressure;Samples;Min_cycle;Max_cycle;Signal;HPM_P1;HPM_P2
2022/05/15 00:01:20;;;;;;;2.83;1.45;;;18.30;92.60;;;;;;5135223;27;20061;-77
2022/05/15 00:03:48;;;;;;;4.45;1.90;;;18.30;92.70;;;;;;5132101;27;20046;-76
2022/05/15 00:06:17;;;;;;;3.13;1.55;;;18.30;92.70;;;;;;5128800;27;20118;-77
2022/05/15 00:08:44;;;;;;;4.90;1.92;;;18.30;92.70;;;;;;5122457;27;20036;-76
2022/05/15 00:11:12;;;;;;;4.55;1.65;;;18.20;92.70;;;;;;5113023;27;20042;-77
2022/05/15 00:13:42;;;;;;;4.70;2.05;;;18.30;92.70;;;;;;5131353;27;20512;-77
2022/05/15 00:16:07;;;;;;;5.88;2.08;;;18.30;92.70;;;;;;5113265;27;20097;-77
2022/05/15 00:18:33;;;;;;;2.35;1.77;;;18.20;92.70;;;;;;5131711;27;20763;-77
2022/05/15 00:21:00;;;;;;;3.30;1.67;;;18.20;92.80;;;;;;5107205;27;20047;-76
2022/05/15 00:23:29;;;;;;;2.28;1.70;;;18.20;92.80;;;;;;5111911;27;20036;-76
2022/05/15 00:25:55;;;;;;;4.50;1.58;;;18.20;92.80;;;;;;5129845;27;20066;-77
2022/05/15 00:28:23;;;;;;;2.03;1.30;;;18.20;92.80;;;;;;5114600;27;20043;-77
2022/05/15 00:30:51;;;;;;;3.83;1.45;;;18.20;92.80;;;;;;5114019;27;20039;-77
2022/05/15 00:33:18;;;;;;;5.88;2.80;;;18.60;92.90;;;;;;5110624;27;20134;-77
2022/05/15 00:35:44;;;;;;;3.67;1.67;;;18.20;92.80;;;;;;5113896;27;20314;-77
2022/05/15 00:38:11;;;;;;;3.60;1.70;;;18.10;92.80;;;;;;5108729;27;20051;-77
2022/05/15 00:40:41;;;;;;;3.28;1.52;;;18.20;92.80;;;;;;5133525;27;20043;-77
2022/05/15 00:43:34;;;;;;;3.10;1.73;;;18.20;92.80;;;;;;5127165;27;20080;-76
2022/05/15 00:46:04;;;;;;;5.90;2.35;;;18.10;92.80;;;;;;5140842;27;20219;-77
2022/05/15 00:48:30;;;;;;;5.55;1.77;;;18.10;92.80;;;;;;5138567;27;20039;-77
2022/05/15 00:50:57;;;;;;;2.13;1.52;;;18.10;92.80;;;;;;5137053;27;20168;-77
2022/05/15 00:53:25;;;;;;;2.42;1.55;;;18.10;92.80;;;;;;5127182;27;20071;-77
2022/05/15 00:55:57;;;;;;;4.10;1.85;;;18.10;92.80;;;;;;5113014;27;20043;-77
2022/05/15 00:58:35;;;;;;;3.80;1.73;;;18.10;92.80;;;;;;5116426;27;20130;-77
2022/05/15 01:01:04;;;;;;;7.18;1.60;;;18.10;92.80;;;;;;5133283;27;20051;-77
2022/05/15 01:03:31;;;;;;;2.88;2.28;;;18.00;92.80;;;;;;5116730;27;21417;-77
2022/05/15 01:06:00;;;;;;;3.22;1.38;;;18.00;92.90;;;;;;5108717;27;20532;-76
2022/05/15 01:08:32;;;;;;;2.20;1.15;;;18.00;92.80;;;;;;5113178;27;20047;-78
2022/05/15 01:11:10;;;;;;;2.88;2.03;;;18.00;92.90;;;;;;5133428;27;20122;-77
2022/05/15 01:13:42;;;;;;;2.55;1.52;;;18.00;92.90;;;;;;5106655;27;20057;-77
2022/05/15 01:16:11;;;;;;;3.70;1.38;;;17.90;92.90;;;;;;5112537;27;20496;-76
2022/05/15 01:18:43;;;;;;;3.53;1.40;;;17.90;92.90;;;;;;5111004;27;20039;-77
2022/05/15 01:21:30;;;;;;;3.17;1.60;;;17.90;92.90;;;;;;5131320;27;20047;-77
2022/05/15 01:23:57;;;;;;;4.97;1.83;;;17.90;92.90;;;;;;5105988;27;20039;-77
2022/05/15 01:26:24;;;;;;;1.65;1.30;;;17.90;92.90;;;;;;5132697;27;20078;-78
2022/05/15 01:28:51;;;;;;;3.75;1.50;;;17.90;92.90;;;;;;5129280;27;20043;-77
2022/05/15 01:31:18;;;;;;;5.22;1.77;;;17.90;93.00;;;;;;5112253;27;20662;-77
2022/05/15 01:33:51;;;;;;;3.25;1.67;;;17.90;92.90;;;;;;5109131;27;20104;-78
2022/05/15 01:36:20;;;;;;;2.67;1.60;;;17.60;92.90;;;;;;5130339;27;20046;-77
2022/05/15 01:38:46;;;;;;;3.50;1.40;;;17.90;93.00;;;;;;5130909;27;20043;-78
2022/05/15 01:41:12;;;;;;;7.35;1.90;;;17.80;93.00;;;;;;5128720;27;20066;-77
2022/05/15 01:43:47;;;;;;;4.13;1.77;;;17.40;92.90;;;;;;5107896;27;20048;-77
2022/05/15 01:46:16;;;;;;;3.45;1.75;;;17.80;93.10;;;;;;5109289;27;20507;-78
2022/05/15 01:48:45;;;;;;;1.98;1.35;;;18.00;93.10;;;;;;5110369;27;21243;-77
2022/05/15 01:51:11;;;;;;;2.63;1.67;;;17.80;93.10;;;;;;5107418;27;20096;-77
2022/05/15 01:53:37;;;;;;;2.05;1.52;;;17.80;93.20;;;;;;5104598;27;20463;-78
2022/05/15 01:56:04;;;;;;;3.58;1.52;;;17.80;93.20;;;;;;5100912;27;20106;-77
2022/05/15 01:58:35;;;;;;;2.50;1.67;;;18.00;93.20;;;;;;5102605;27;20051;-77
2022/05/15 02:01:05;;;;;;;3.63;2.10;;;17.80;93.20;;;;;;5107670;27;20569;-77
2022/05/15 02:03:31;;;;;;;2.13;1.52;;;17.80;93.20;;;;;;5107655;27;20036;-78
2022/05/15 02:05:57;;;;;;;3.25;1.73;;;17.80;93.30;;;;;;5110472;27;20916;-77
2022/05/15 02:08:23;;;;;;;5.20;2.30;;;17.80;93.50;;;;;;5111970;27;20043;-77
2022/05/15 02:10:49;;;;;;;2.58;2.00;;;17.80;93.30;;;;;;5110321;27;20032;-78
2022/05/15 02:13:18;;;;;;;5.43;1.50;;;17.80;93.30;;;;;;5110917;27;20046;-78
2022/05/15 02:15:44;;;;;;;2.08;1.50;;;17.70;93.30;;;;;;5112130;27;20044;-78
2022/05/15 02:18:14;;;;;;;3.72;1.60;;;17.70;93.40;;;;;;5107752;27;20040;-77
2022/05/15 02:20:39;;;;;;;3.45;1.55;;;17.70;93.30;;;;;;5098533;27;20048;-77
2022/05/15 02:23:06;;;;;;;6.45;1.50;;;17.70;93.40;;;;;;5124361;27;20490;-77
2022/05/15 02:25:35;;;;;;;3.47;1.83;;;17.70;93.40;;;;;;5110068;27;20043;-78
2022/05/15 02:28:04;;;;;;;8.40;2.42;;;17.70;93.40;;;;;;5107819;27;20035;-76
2022/05/15 02:30:30;;;;;;;2.03;1.42;;;17.70;93.40;;;;;;5108870;27;20047;-77
2022/05/15 02:32:59;;;;;;;3.05;1.38;;;17.70;93.40;;;;;;5106796;27;20628;-78
2022/05/15 02:35:28;;;;;;;5.30;3.35;;;17.70;93.50;;;;;;5109231;27;20047;-78
2022/05/15 02:37:54;;;;;;;3.85;1.50;;;17.70;93.50;;;;;;5114785;27;20048;-77
2022/05/15 02:40:22;;;;;;;3.03;1.30;;;17.60;93.50;;;;;;5123335;27;20134;-77
2022/05/15 02:42:49;;;;;;;4.07;1.40;;;17.60;93.70;;;;;;5121109;27;20507;-77
2022/05/15 02:45:21;;;;;;;4.40;1.80;;;17.60;93.50;;;;;;5128679;27;20055;-78
2022/05/15 02:47:47;;;;;;;3.05;1.63;;;17.40;93.40;;;;;;5126906;27;20040;-78
2022/05/15 02:53:00;;;;;;;4.35;1.92;;;17.60;93.50;;;;;;5128880;27;20047;-77
2022/05/15 02:55:28;;;;;;;6.07;2.10;;;17.50;93.50;;;;;;5129328;27;20529;-77
2022/05/15 02:57:54;;;;;;;4.15;2.03;;;17.60;93.60;;;;;;5129399;27;20104;-77
2022/05/15 03:00:24;;;;;;;2.85;1.40;;;18.00;93.70;;;;;;5128220;27;20130;-78
2022/05/15 03:02:51;;;;;;;5.25;1.60;;;17.60;93.60;;;;;;5115919;27;20096;-78
2022/05/15 03:05:19;;;;;;;3.53;2.13;;;17.50;93.60;;;;;;5131580;27;20636;-77
2022/05/15 03:07:45;;;;;;;7.18;1.88;;;17.50;93.60;;;;;;5132643;27;20122;-78
2022/05/15 03:10:16;;;;;;;4.65;1.77;;;17.50;93.70;;;;;;5127935;27;20130;-77
2022/05/15 03:12:42;;;;;;;2.42;1.63;;;17.50;93.60;;;;;;5114162;27;20044;-77
2022/05/15 03:15:14;;;;;;;7.95;2.88;;;17.50;93.70;;;;;;5115337;27;20074;-78
2022/05/15 03:17:44;;;;;;;2.88;1.73;;;17.50;93.70;;;;;;5105728;27;20602;-77
2022/05/15 03:20:11;;;;;;;3.60;1.35;;;17.60;93.70;;;;;;5107572;27;20385;-78
2022/05/15 03:22:37;;;;;;;2.40;1.35;;;17.30;93.60;;;;;;5113727;27;20039;-77
2022/05/15 03:25:07;;;;;;;3.53;1.95;;;17.50;93.60;;;;;;5114780;27;20449;-77
2022/05/15 03:27:36;;;;;;;3.40;1.70;;;17.60;93.70;;;;;;5111088;27;20068;-77
2022/05/15 03:30:08;;;;;;;5.65;2.30;;;17.50;93.70;;;;;;5108039;27;20039;-76
2022/05/15 03:32:37;;;;;;;1.85;1.30;;;17.40;93.70;;;;;;5110846;27;20627;-76
2022/05/15 03:35:07;;;;;;;4.80;1.77;;;17.40;93.80;;;;;;5126983;27;20114;-78
2022/05/15 03:37:35;;;;;;;5.72;1.52;;;17.40;93.80;;;;;;5130110;27;20638;-77
2022/05/15 03:40:05;;;;;;;2.10;1.60;;;17.30;93.80;;;;;;5106306;27;20070;-77
2022/05/15 03:42:33;;;;;;;9.48;2.08;;;17.30;93.90;;;;;;5130964;27;20231;-78
2022/05/15 03:45:00;;;;;;;5.30;1.58;;;17.30;93.90;;;;;;5122658;27;20094;-78
2022/05/15 03:47:33;;;;;;;2.80;1.35;;;17.30;94.00;;;;;;5112192;27;20053;-78
2022/05/15 03:50:09;;;;;;;2.33;1.73;;;17.30;94.00;;;;;;5122470;27;20119;-77
2022/05/15 03:52:37;;;;;;;4.18;1.58;;;17.30;94.10;;;;;;5131721;27;20645;-78
2022/05/15 03:55:03;;;;;;;3.38;1.60;;;17.30;94.10;;;;;;5134229;27;20128;-78
2022/05/15 03:57:29;;;;;;;2.05;1.48;;;17.30;94.20;;;;;;5113363;27;20051;-78
2022/05/15 04:00:03;;;;;;;2.78;1.75;;;17.30;94.20;;;;;;5110583;27;20047;-78
2022/05/15 04:02:35;;;;;;;4.07;2.20;;;17.20;94.20;;;;;;5132470;27;20107;-80
2022/05/15 04:05:07;;;;;;;8.13;3.05;;;17.20;94.20;;;;;;5106685;27;20126;-79
2022/05/15 04:07:33;;;;;;;3.70;1.55;;;17.20;94.30;;;;;;5133315;27;20521;-78
2022/05/15 04:10:03;;;;;;;4.93;1.67;;;17.20;94.60;;;;;;5114451;27;20567;-77
2022/05/15 04:12:32;;;;;;;3.50;1.70;;;17.20;94.30;;;;;;5104497;27;20043;-78
2022/05/15 04:14:58;;;;;;;6.50;1.90;;;17.20;94.30;;;;;;5114133;27;20100;-78
2022/05/15 04:17:26;;;;;;;4.75;1.90;;;17.00;94.30;;;;;;5135917;27;20047;-77
2022/05/15 04:19:57;;;;;;;4.25;1.58;;;17.20;94.40;;;;;;5134322;27;20386;-77
2022/05/15 04:22:22;;;;;;;3.30;1.73;;;17.10;94.40;;;;;;5122266;27;20169;-78
2022/05/15 04:24:53;;;;;;;5.03;2.47;;;17.00;94.50;;;;;;5107136;27;21142;-78
2022/05/15 04:27:19;;;;;;;3.13;1.58;;;16.90;94.50;;;;;;5130373;27;20050;-78
2022/05/15 04:29:48;;;;;;;3.47;1.80;;;17.10;94.60;;;;;;5131109;27;20497;-78
2022/05/15 04:32:20;;;;;;;3.20;2.20;;;16.90;94.70;;;;;;5129073;27;21008;-78
2022/05/15 04:34:46;;;;;;;4.18;2.42;;;16.90;94.70;;;;;;5132205;27;20043;-78
2022/05/15 04:37:19;;;;;;;2.92;1.63;;;16.90;94.80;;;;;;5123592;27;21244;-77
2022/05/15 04:39:44;;;;;;;4.20;1.85;;;16.90;94.80;;;;;;5127577;27;20039;-78
2022/05/15 04:42:13;;;;;;;3.38;1.88;;;16.90;94.90;;;;;;5130608;27;20112;-77
2022/05/15 04:44:39;;;;;;;2.95;1.65;;;16.90;94.90;;;;;;5130488;27;20059;-78
2022/05/15 04:47:08;;;;;;;4.05;1.83;;;17.10;95.00;;;;;;5111300;27;20031;-78
2022/05/15 04:49:45;;;;;;;7.35;1.45;;;17.00;95.00;;;;;;5112865;27;20046;-77
2022/05/15 04:52:17;;;;;;;2.63;2.10;;;16.90;95.00;;;;;;5127546;27;20045;-77
2022/05/15 04:54:49;;;;;;;3.80;2.05;;;16.20;94.90;;;;;;5109509;27;20051;-78
2022/05/15 04:57:16;;;;;;;3.42;1.48;;;17.00;95.20;;;;;;5122570;27;20070;-78
2022/05/15 04:59:42;;;;;;;4.07;1.60;;;17.10;95.20;;;;;;5122117;27;20035;-77
2022/05/15 05:02:08;;;;;;;3.85;2.10;;;16.90;95.20;;;;;;5129996;27;20052;-78
2022/05/15 05:04:33;;;;;;;3.22;1.60;;;17.20;95.20;;;;;;5131479;27;20042;-78
2022/05/15 05:07:04;;;;;;;4.78;1.85;;;17.30;95.30;;;;;;5129215;27;20537;-78
2022/05/15 05:09:38;;;;;;;2.47;1.65;;;17.30;95.30;;;;;;5131173;27;20042;-77
2022/05/15 05:12:08;;;;;;;5.43;1.95;;;17.30;95.20;;;;;;5110127;27;20415;-78
2022/05/15 05:14:37;;;;;;;4.15;1.60;;;17.30;95.20;;;;;;5127732;27;20758;-78
2022/05/15 05:17:03;;;;;;;4.75;1.75;;;17.20;95.20;;;;;;5112350;27;20051;-78
2022/05/15 05:19:29;;;;;;;4.03;1.48;;;17.40;95.20;;;;;;5129606;27;20043;-77
2022/05/15 05:21:55;;;;;;;3.05;2.08;;;17.20;95.20;;;;;;5109499;27;20031;-78
2022/05/15 05:24:21;;;;;;;3.50;2.10;;;17.10;95.30;;;;;;5126802;27;20548;-78
2022/05/15 05:26:47;;;;;;;7.10;1.90;;;17.10;95.30;;;;;;5131938;27;20062;-78
2022/05/15 05:29:15;;;;;;;5.32;1.98;;;17.10;95.60;;;;;;5104374;27;20646;-78
2022/05/15 05:31:46;;;;;;;4.45;1.77;;;16.60;95.30;;;;;;5111619;27;20545;-78
2022/05/15 05:34:14;;;;;;;2.78;2.40;;;17.00;95.40;;;;;;5105676;27;20073;-78
2022/05/15 05:36:45;;;;;;;3.35;1.92;;;17.00;95.40;;;;;;5131516;27;20042;-78
2022/05/15 05:39:19;;;;;;;3.60;1.88;;;17.00;95.50;;;;;;5130476;27;20146;-78
2022/05/15 05:41:45;;;;;;;2.90;1.67;;;17.00;95.40;;;;;;5129339;27;20982;-78
2022/05/15 05:44:13;;;;;;;3.55;1.45;;;17.40;95.60;;;;;;5131482;27;20055;-78
2022/05/15 05:46:41;;;;;;;4.47;2.00;;;17.50;95.70;;;;;;5120486;27;20032;-77
2022/05/15 05:49:10;;;;;;;6.80;2.40;;;17.10;95.60;;;;;;5122138;27;20126;-78
2022/05/15 05:51:46;;;;;;;5.90;2.20;;;17.10;95.60;;;;;;5108941;27;20127;-77
2022/05/15 05:54:17;;;;;;;2.17;1.63;;;17.00;95.60;;;;;;5102902;27;21470;-78
2022/05/15 05:56:46;;;;;;;2.95;2.33;;;17.10;95.60;;;;;;5124859;27;20067;-81
2022/05/15 05:59:18;;;;;;;2.88;1.63;;;17.10;95.60;;;;;;5104967;27;20122;-82
2022/05/15 06:01:52;;;;;;;5.53;2.10;;;17.20;95.60;;;;;;5105427;27;20047;-83
2022/05/15 06:04:40;;;;;;;4.68;2.08;;;17.30;95.70;;;;;;5132695;27;20059;-81
2022/05/15 06:07:06;;;;;;;4.00;1.67;;;17.20;95.70;;;;;;5112652;27;20043;-76
2022/05/15 06:09:38;;;;;;;2.13;1.60;;;17.30;95.70;;;;;;5131500;27;20111;-77
2022/05/15 06:12:07;;;;;;;5.35;3.13;;;17.40;95.80;;;;;;5123570;27;20039;-77
2022/05/15 06:14:35;;;;;;;4.63;1.80;;;17.40;96.00;;;;;;5129311;27;20091;-77
2022/05/15 06:17:07;;;;;;;4.40;1.38;;;17.50;95.80;;;;;;5127297;27;20049;-78
2022/05/15 06:19:46;;;;;;;3.80;1.42;;;17.10;95.60;;;;;;5104826;27;20035;-78
2022/05/15 06:22:12;;;;;;;4.78;1.48;;;17.60;95.80;;;;;;5112675;27;20127;-78
2022/05/15 06:24:40;;;;;;;2.20;1.40;;;17.60;95.80;;;;;;5105535;27;20043;-76
2022/05/15 06:27:07;;;;;;;3.42;1.33;;;17.60;95.80;;;;;;5129476;27;20040;-77
2022/05/15 06:29:35;;;;;;;3.08;1.90;;;17.70;95.80;;;;;;5115905;27;20042;-77
2022/05/15 06:32:05;;;;;;;2.60;1.85;;;17.20;95.60;;;;;;5116796;27;20043;-77
2022/05/15 06:34:31;;;;;;;2.33;1.75;;;17.70;95.70;;;;;;5114875;27;20039;-77
2022/05/15 06:36:57;;;;;;;3.53;1.30;;;17.80;95.80;;;;;;5115791;27;20070;-77
2022/05/15 06:39:23;;;;;;;2.17;1.58;;;17.50;95.80;;;;;;5128531;27;20039;-76
2022/05/15 06:41:50;;;;;;;6.38;2.00;;;17.90;95.90;;;;;;5128876;27;20047;-77
2022/05/15 06:44:18;;;;;;;2.40;1.58;;;18.10;95.90;;;;;;5131092;27;20061;-77
2022/05/15 06:46:45;;;;;;;3.85;1.30;;;17.80;95.80;;;;;;5114773;27;20054;-77
2022/05/15 06:49:12;;;;;;;3.22;1.52;;;18.10;95.80;;;;;;5135985;27;20051;-77
2022/05/15 06:51:44;;;;;;;6.40;1.80;;;18.20;95.90;;;;;;5111018;27;20042;-76
2022/05/15 06:54:18;;;;;;;3.17;1.58;;;18.20;95.90;;;;;;5112490;27;20109;-84
2022/05/15 06:59:42;;;;;;;3.55;1.60;;;18.40;95.90;;;;;;5133874;27;20670;-79
2022/05/15 07:02:08;;;;;;;3.13;1.40;;;18.50;95.90;;;;;;5112383;27;20047;-79
2022/05/15 07:04:34;;;;;;;3.45;1.60;;;18.50;95.80;;;;;;5131358;27;20040;-79
2022/05/15 07:07:03;;;;;;;5.70;1.83;;;18.40;95.80;;;;;;5128465;27;20044;-78
2022/05/15 07:09:30;;;;;;;5.88;1.63;;;18.70;95.80;;;;;;5114848;27;20514;-77
2022/05/15 07:12:02;;;;;;;2.65;1.48;;;18.70;95.80;;;;;;5130070;27;20039;-78
2022/05/15 07:14:28;;;;;;;3.33;1.75;;;19.10;95.80;;;;;;5113803;27;20071;-77
2022/05/15 07:16:57;;;;;;;5.18;1.48;;;18.80;95.70;;;;;;5133399;27;20043;-84
2022/05/15 07:19:23;;;;;;;2.03;1.27;;;18.80;95.70;;;;;;5113727;27;20050;-76
2022/05/15 07:21:49;;;;;;;4.90;1.10;;;18.90;95.70;;;;;;5135095;27;20035;-76
2022/05/15 07:24:15;;;;;;;5.95;1.60;;;18.90;95.70;;;;;;5134575;27;20039;-77
2022/05/15 07:26:44;;;;;;;3.53;1.80;;;18.40;95.50;;;;;;5129432;27;20043;-76
2022/05/15 07:29:13;;;;;;;4.63;1.67;;;19.10;95.70;;;;;;5127102;27;20045;-76
2022/05/15 07:31:42;;;;;;;2.65;1.10;;;19.00;95.60;;;;;;5118796;27;20108;-76
2022/05/15 07:34:09;;;;;;;2.42;1.50;;;19.00;95.60;;;;;;5137948;27;20039;-75
2022/05/15 07:36:36;;;;;;;3.03;1.63;;;19.00;95.50;;;;;;5137942;27;20070;-76
2022/05/15 07:39:02;;;;;;;3.97;1.50;;;19.00;95.40;;;;;;5118386;27;20571;-77
2022/05/15 07:41:28;;;;;;;5.78;1.73;;;19.00;95.40;;;;;;5136126;27;20060;-77
2022/05/15 07:43:54;;;;;;;1.90;1.40;;;19.10;95.50;;;;;;5115343;27;20059;-78
2022/05/15 07:46:25;;;;;;;1.42;1.20;;;19.10;95.50;;;;;;5117333;27;20070;-79
2022/05/15 07:48:54;;;;;;;4.38;1.77;;;19.10;95.50;;;;;;5126918;27;20047;-78
2022/05/15 07:51:22;;;;;;;1.52;1.00;;;19.10;95.50;;;;;;5136887;27;20159;-77
2022/05/15 07:53:48;;;;;;;3.00;1.30;;;19.00;95.50;;;;;;5134138;27;20547;-77
2022/05/15 07:56:14;;;;;;;21.52;2.13;;;19.10;95.50;;;;;;5117837;27;20047;-77
2022/05/15 07:58:41;;;;;;;4.43;1.30;;;19.10;95.50;;;;;;5135540;27;20035;-77
2022/05/15 08:01:09;;;;;;;2.97;1.83;;;19.10;95.50;;;;;;5133032;27;20047;-78
2022/05/15 08:03:43;;;;;;;7.15;1.45;;;19.20;95.60;;;;;;5127023;27;20058;-77
2022/05/15 08:08:56;;;;;;;3.92;1.30;;;19.20;95.60;;;;;;5134709;27;20540;-78
2022/05/15 08:11:26;;;;;;;2.53;1.38;;;19.30;95.60;;;;;;5117919;27;20031;-78
2022/05/15 08:13:55;;;;;;;2.22;1.98;;;19.30;95.60;;;;;;5108713;27;20104;-79
2022/05/15 08:16:24;;;;;;;3.83;1.20;;;19.40;95.60;;;;;;5123632;27;20079;-78
2022/05/15 08:24:23;;;;;;;1.85;1.00;;;19.70;95.70;;;;;;5135673;27;20043;-77
2022/05/15 08:26:49;;;;;;;3.28;1.45;;;19.80;95.70;;;;;;5133373;27;20038;-78
2022/05/15 08:29:18;;;;;;;4.80;1.55;;;20.00;95.70;;;;;;5113992;27;20096;-78
2022/05/15 08:31:47;;;;;;;1.48;1.02;;;20.10;95.70;;;;;;5134023;27;20217;-79
2022/05/15 08:34:14;;;;;;;2.28;1.30;;;20.30;95.60;;;;;;5125526;27;20662;-78
2022/05/15 08:36:42;;;;;;;1.95;1.45;;;20.50;95.60;;;;;;5134010;27;20045;-79
2022/05/15 08:39:17;;;;;;;1.90;1.25;;;20.70;95.60;;;;;;5114377;27;20050;-78
2022/05/15 08:41:48;;;;;;;2.70;1.27;;;21.00;95.50;;;;;;5135307;27;20449;-78
2022/05/15 08:44:19;;;;;;;2.53;1.50;;;21.10;95.40;;;;;;5096066;27;20056;-78
2022/05/15 08:47:18;;;;;;;5.82;1.50;;;21.30;95.10;;;;;;5112525;27;20133;-79
2022/05/15 08:49:58;;;;;;;1.60;1.25;;;21.40;94.90;;;;;;5083425;27;20476;-79
2022/05/15 08:52:30;;;;;;;3.13;0.98;;;21.40;94.80;;;;;;5112391;27;20035;-80
2022/05/15 08:55:10;;;;;;;1.90;1.45;;;21.80;94.80;;;;;;5083158;27;20076;-79
2022/05/15 08:57:53;;;;;;;4.43;1.65;;;21.60;94.70;;;;;;5111608;27;20936;-79
2022/05/15 09:00:27;;;;;;;2.58;1.33;;;21.60;94.50;;;;;;5104032;27;20132;-79
2022/05/15 09:02:59;;;;;;;3.17;1.38;;;21.60;94.50;;;;;;5095345;27;20148;-78
2022/05/15 09:05:31;;;;;;;4.85;1.77;;;21.70;94.40;;;;;;5093387;27;20107;-79
2022/05/15 09:08:24;;;;;;;5.78;1.45;;;21.70;94.30;;;;;;5085572;27;21004;-79
2022/05/15 09:11:00;;;;;;;9.57;2.50;;;21.80;94.10;;;;;;5085724;27;20052;-79
2022/05/15 09:13:51;;;;;;;2.70;1.20;;;22.00;94.10;;;;;;5110855;27;20519;-79
2022/05/15 09:16:24;;;;;;;2.70;1.52;;;22.00;94.00;;;;;;5094129;27;20043;-79
2022/05/15 09:18:50;;;;;;;5.03;1.20;;;22.10;94.00;;;;;;5105286;27;20040;-79
2022/05/15 09:21:18;;;;;;;6.35;2.35;;;22.00;94.00;;;;;;5110831;27;20042;-78
2022/05/15 09:23:53;;;;;;;2.78;1.40;;;22.00;93.90;;;;;;5110534;27;20047;-79
2022/05/15 09:26:28;;;;;;;4.65;1.55;;;22.00;93.90;;;;;;5094353;27;20058;-79
2022/05/15 09:29:06;;;;;;;7.65;2.45;;;22.00;93.80;;;;;;5114990;27;20155;-79
2022/05/15 09:31:35;;;;;;;3.28;1.40;;;21.90;93.80;;;;;;5086583;27;20071;-79
2022/05/15 09:34:26;;;;;;;3.28;1.73;;;21.90;93.80;;;;;;5093865;27;20063;-79
2022/05/15 09:38:27;;;;;;;1.45;1.20;;;21.80;93.90;;;;;;5082585;27;20057;-79
2022/05/15 09:39:55;;;;;;;2.83;1.52;;;21.80;93.90;;;;;;5110983;27;20047;-79
2022/05/15 09:45:14;;;;;;;3.10;1.20;;;21.90;94.00;;;;;;5135193;27;20122;-78
2022/05/15 09:47:43;;;;;;;3.10;1.55;;;21.90;94.10;;;;;;5106635;27;20054;-79
2022/05/15 09:50:30;;;;;;;3.05;1.73;;;21.90;94.10;;;;;;5110628;27;20059;-79
2022/05/15 09:52:58;;;;;;;3.80;1.92;;;21.90;94.10;;;;;;5133178;27;20043;-79
2022/05/15 09:55:26;;;;;;;3.90;1.20;;;22.00;94.10;;;;;;5131198;27;20121;-79
2022/05/15 09:57:57;;;;;;;2.72;2.40;;;22.00;94.20;;;;;;5124584;27;20044;-79
2022/05/15 10:00:27;;;;;;;3.90;1.63;;;22.00;94.20;;;;;;5110967;27;20158;-79
2022/05/15 10:03:04;;;;;;;3.10;1.63;;;22.10;94.30;;;;;;5104087;27;20156;-81
2022/05/15 10:05:35;;;;;;;4.80;1.52;;;22.10;94.30;;;;;;5107255;27;20050;-79
2022/05/15 10:08:08;;;;;;;5.87;2.07;;;22.10;94.30;;;;;;5123499;27;20067;-78
2022/05/15 10:10:44;;;;;;;3.58;1.63;;;22.10;94.30;;;;;;5104570;27;20047;-78
2022/05/15 10:13:15;;;;;;;2.80;1.35;;;22.10;94.40;;;;;;5121746;27;20240;-79
2022/05/15 10:15:47;;;;;;;3.60;2.55;;;22.10;94.40;;;;;;5142809;27;20168;-78
2022/05/15 10:18:20;;;;;;;;;;;22.20;94.50;;;;;;5142971;27;20488;-79
2022/05/15 10:20:50;;;;;;;4.22;1.40;;;22.20;94.50;;;;;;5132121;27;19919;-78
2022/05/15 10:23:25;;;;;;;3.67;2.40;;;22.30;94.50;;;;;;5139116;27;20047;-78
2022/05/15 10:26:20;;;;;;;2.65;1.40;;;22.50;94.50;;;;;;5133873;27;20048;-79
2022/05/15 10:29:30;;;;;;;4.18;1.77;;;22.50;94.50;;;;;;5118284;27;20529;-79
2022/05/15 10:32:18;;;;;;;2.92;2.10;;;22.50;94.50;;;;;;5118618;27;20046;-78
2022/05/15 10:34:45;;;;;;;2.65;1.52;;;22.50;94.60;;;;;;5108931;27;20044;-78
2022/05/15 10:37:57;;;;;;;4.60;1.80;;;22.40;94.60;;;;;;5116156;27;20046;-80
2022/05/15 10:40:39;;;;;;;3.75;1.70;;;22.50;94.70;;;;;;5041046;28;20510;-79
2022/05/15 10:43:29;;;;;;;5.88;1.67;;;22.70;94.80;;;;;;5132539;27;20192;-78
2022/05/15 10:46:06;;;;;;;2.80;1.80;;;22.80;94.80;;;;;;5133346;27;20172;-79
2022/05/15 10:49:00;;;;;;;3.03;1.67;;;23.10;94.80;;;;;;5132831;27;20059;-78
2022/05/15 10:51:48;;;;;;;2.88;1.80;;;23.30;94.70;;;;;;5136445;27;20123;-79
2022/05/15 10:57:47;;;;;;;3.53;1.65;;;23.80;94.60;;;;;;5132028;27;20105;-81
2022/05/15 11:00:23;;;;;;;4.53;2.28;;;24.00;94.50;;;;;;5093652;27;20050;-79
2022/05/15 11:02:55;;;;;;;3.47;1.52;;;24.20;94.50;;;;;;5108456;27;20510;-82
2022/05/15 11:05:30;;;;;;;;;;;24.40;94.30;;;;;;5110464;27;20503;-79
2022/05/15 11:08:21;;;;;;;2.83;1.70;;;24.50;94.20;;;;;;5108306;27;19920;-82
2022/05/15 11:10:49;;;;;;;4.60;1.90;;;24.50;94.20;;;;;;5134083;27;20046;-79
2022/05/15 11:13:19;;;;;;;5.20;2.60;;;24.50;94.20;;;;;;5105930;27;20046;-79
2022/05/15 11:16:06;;;;;;;4.85;1.73;;;24.60;94.10;;;;;;5129552;27;20104;-82
2022/05/15 11:18:41;;;;;;;5.95;2.60;;;24.70;94.00;;;;;;5136159;27;20059;-82
2022/05/15 11:21:30;;;;;;;6.05;3.40;;;24.60;94.00;;;;;;5134612;27;20047;-80
2022/05/15 11:24:38;;;;;;;4.95;2.22;;;24.70;93.90;;;;;;5109092;27;20047;-81
2022/05/15 11:27:30;;;;;;;5.45;2.13;;;24.70;93.90;;;;;;5138417;27;20035;-82
2022/05/15 11:29:59;;;;;;;3.70;2.30;;;24.70;93.90;;;;;;5136338;27;20051;-81
2022/05/15 11:32:27;;;;;;;3.47;2.10;;;24.80;93.90;;;;;;5114962;27;20042;-81
2022/05/15 11:35:20;;;;;;;3.53;1.83;;;24.90;93.80;;;;;;5137465;27;21052;-81
2022/05/15 11:38:04;;;;;;;2.72;1.85;;;24.80;93.60;;;;;;5100875;27;20079;-81
2022/05/15 11:40:38;;;;;;;4.10;2.00;;;24.90;93.60;;;;;;5120877;27;20035;-81
2022/05/15 11:43:26;;;;;;;3.22;1.90;;;24.90;93.50;;;;;;5134657;27;20509;-81
2022/05/15 11:46:10;;;;;;;5.72;2.03;;;25.10;93.40;;;;;;5108013;27;20035;-81
2022/05/15 11:48:44;;;;;;;3.03;1.70;;;25.20;93.20;;;;;;5133362;27;20134;-81
2022/05/15 11:51:17;;;;;;;3.15;2.05;;;25.50;93.40;;;;;;5117505;27;20035;-81
2022/05/15 11:53:55;;;;;;;5.10;2.50;;;25.50;93.10;;;;;;5125400;27;20071;-81
2022/05/15 11:56:27;;;;;;;7.63;2.83;;;25.60;93.00;;;;;;5130657;27;20731;-80
2022/05/15 11:58:56;;;;;;;3.92;1.88;;;25.70;92.90;;;;;;5111336;27;20042;-81
2022/05/15 12:01:28;;;;;;;4.05;2.00;;;25.70;92.80;;;;;;5115459;27;20044;-82
2022/05/15 12:04:19;;;;;;;3.50;1.80;;;25.70;92.70;;;;;;5108878;27;20045;-82
2022/05/15 12:07:09;;;;;;;4.00;2.30;;;25.60;92.50;;;;;;5109217;27;20040;-82
2022/05/15 12:09:49;;;;;;;5.50;2.38;;;25.50;92.50;;;;;;5135312;27;20031;-83
2022/05/15 12:12:24;;;;;;;2.55;2.05;;;25.40;92.50;;;;;;5104194;27;20507;-82
2022/05/15 12:15:04;;;;;;;9.90;5.22;;;25.40;92.40;;;;;;5108723;27;20586;-82
2022/05/15 12:17:40;;;;;;;6.95;2.88;;;25.50;92.40;;;;;;5109028;27;20049;-82
2022/05/15 12:20:20;;;;;;;2.65;1.80;;;25.50;92.40;;;;;;5116395;27;20464;-82
2022/05/15 12:22:56;;;;;;;5.57;2.17;;;25.60;92.40;;;;;;5133663;27;20028;-82
2022/05/15 12:25:30;;;;;;;4.32;2.30;;;25.70;92.40;;;;;;5135429;27;20503;-81
2022/05/15 12:28:52;;;;;;;3.45;1.90;;;25.70;92.40;;;;;;5130324;27;20113;-84
2022/05/15 12:31:39;;;;;;;9.63;3.53;;;25.70;92.20;;;;;;5043780;27;20594;-85
2022/05/15 12:34:49;;;;;;;4.13;2.45;;;25.70;92.30;;;;;;5110229;27;20122;-87
2022/05/15 12:37:25;;;;;;;5.43;2.33;;;25.70;92.10;;;;;;5042806;28;21288;-84
2022/05/15 12:39:53;;;;;;;4.57;2.20;;;25.80;92.10;;;;;;5022242;28;20136;-84
2022/05/15 12:42:24;;;;;;;5.25;2.92;;;26.00;92.10;;;;;;5098212;27;20138;-83
2022/05/15 12:45:19;;;;;;;3.67;2.60;;;26.00;92.00;;;;;;5132916;27;20066;-83
2022/05/15 12:48:11;;;;;;;6.07;2.47;;;26.00;92.00;;;;;;5106919;27;20070;-82
2022/05/15 12:50:50;;;;;;;;;;;26.00;91.80;;;;;;5137655;27;20711;-82
2022/05/15 12:53:26;;;;;;;3.55;2.53;;;26.00;91.80;;;;;;5107901;27;19920;-82
2022/05/15 12:56:09;;;;;;;4.53;2.40;;;25.90;91.90;;;;;;5135804;27;20055;-85
2022/05/15 12:58:36;;;;;;;5.95;2.35;;;25.80;91.90;;;;;;5134991;27;20043;-79
2022/05/15 13:01:04;;;;;;;5.60;2.50;;;25.80;92.00;;;;;;5133585;27;20607;-79
2022/05/15 13:03:30;;;;;;;6.70;3.33;;;25.80;91.90;;;;;;5133919;27;20039;-79
2022/05/15 13:06:01;;;;;;;4.10;2.50;;;25.80;91.90;;;;;;5133406;27;20055;-80
2022/05/15 13:08:52;;;;;;;3.53;2.10;;;25.70;92.00;;;;;;5133614;27;20043;-79
2022/05/15 13:11:22;;;;;;;3.60;2.30;;;25.70;92.00;;;;;;5132074;27;20051;-78
2022/05/15 13:13:52;;;;;;;5.30;2.30;;;25.70;92.00;;;;;;5135630;27;20191;-79
2022/05/15 13:16:21;;;;;;;4.07;2.35;;;25.60;91.90;;;;;;5114551;27;20134;-79
2022/05/15 13:18:53;;;;;;;2.88;1.92;;;25.50;91.90;;;;;;5115310;27;20145;-78
2022/05/15 13:21:28;;;;;;;4.68;2.60;;;25.50;92.00;;;;;;5105656;27;20673;-81
2022/05/15 13:23:54;;;;;;;3.78;2.63;;;25.50;92.00;;;;;;5107282;27;20084;-81
2022/05/15 13:26:30;;;;;;;5.25;2.15;;;25.60;92.10;;;;;;5131960;27;20043;-80
2022/05/15 13:29:00;;;;;;;4.07;2.22;;;25.80;92.00;;;;;;5133094;27;20043;-79
2022/05/15 13:31:58;;;;;;;4.25;2.63;;;26.00;91.90;;;;;;5131026;27;20154;-82
2022/05/15 13:34:27;;;;;;;2.85;2.03;;;26.00;91.80;;;;;;5111956;27;20155;-80